sensor_id;sensor_type;location;lat;lon;timestamp;P1;durP1;ratioP1;P2;durP2;ratioP2
45812;SDS011;31519;45.408;10.962;2022-11-21T00:02:16;30.10;;;17.30;;
45812;SDS011;31519;45.408;10.962;2022-11-21T00:04:45;31.40;;;17.27;;
45812;SDS011;31519;45.408;10.962;2022-11-21T00:07:13;35.45;;;17.65;;
45812;SDS011;31519;45.408;10.962;2022-11-21T00:09:41;37.00;;;18.45;;
45812;SDS011;31519;45.408;10.962;2022-11-21T00:12:09;36.47;;;18.75;;
45812;SDS011;31519;45.408;10.962;2022-11-21T00:14:38;39.92;;;20.10;;
45812;SDS011;31519;45.408;10.962;2022-11-21T00:17:06;35.95;;;18.58;;
45812;SDS011;31519;45.408;10.962;2022-11-21T00:19:35;35.67;;;17.80;;
45812;SDS011;31519;45.408;10.962;2022-11-21T00:22:03;43.35;;;18.27;;
45812;SDS011;31519;45.408;10.962;2022-11-21T00:24:31;35.22;;;18.02;;
45812;SDS011;31519;45.408;10.962;2022-11-21T00:26:59;40.58;;;18.30;;
45812;SDS011;31519;45.408;10.962;2022-11-21T00:29:28;38.80;;;19.60;;
45812;SDS011;31519;45.408;10.962;2022-11-21T00:31:56;34.85;;;17.73;;
45812;SDS011;31519;45.408;10.962;2022-11-21T00:34:26;33.75;;;18.30;;
45812;SDS011;31519;45.408;10.962;2022-11-21T00:36:54;36.45;;;18.60;;
45812;SDS011;31519;45.408;10.962;2022-11-21T00:39:22;40.33;;;18.65;;
45812;SDS011;31519;45.408;10.962;2022-11-21T00:41:50;35.42;;;17.23;;
45812;SDS011;31519;45.408;10.962;2022-11-21T00:44:19;32.35;;;17.35;;
45812;SDS011;31519;45.408;10.962;2022-11-21T00:46:47;38.25;;;18.15;;
45812;SDS011;31519;45.408;10.962;2022-11-21T00:49:15;34.55;;;17.95;;
45812;SDS011;31519;45.408;10.962;2022-11-21T00:51:44;34.65;;;17.73;;
45812;SDS011;31519;45.408;10.962;2022-11-21T00:54:12;35.20;;;18.25;;
45812;SDS011;31519;45.408;10.962;2022-11-21T00:56:42;32.20;;;17.02;;
45812;SDS011;31519;45.408;10.962;2022-11-21T00:59:10;36.65;;;17.98;;
45812;SDS011;31519;45.408;10.962;2022-11-21T01:01:39;33.05;;;16.75;;
45812;SDS011;31519;45.408;10.962;2022-11-21T01:04:07;34.88;;;18.92;;
45812;SDS011;31519;45.408;10.962;2022-11-21T01:06:38;35.88;;;18.55;;
45812;SDS011;31519;45.408;10.962;2022-11-21T01:09:07;31.08;;;17.05;;
45812;SDS011;31519;45.408;10.962;2022-11-21T01:11:35;31.55;;;17.33;;
45812;SDS011;31519;45.408;10.962;2022-11-21T01:14:03;41.67;;;16.75;;
45812;SDS011;31519;45.408;10.962;2022-11-21T01:16:31;33.65;;;17.67;;
45812;SDS011;31519;45.408;10.962;2022-11-21T01:19:00;28.55;;;16.45;;
45812;SDS011;31519;45.408;10.962;2022-11-21T01:21:29;42.17;;;17.02;;
45812;SDS011;31519;45.408;10.962;2022-11-21T01:23:59;36.53;;;16.70;;
45812;SDS011;31519;45.408;10.962;2022-11-21T01:26:29;33.92;;;18.35;;
45812;SDS011;31519;45.408;10.962;2022-11-21T01:29:00;33.20;;;17.40;;
45812;SDS011;31519;45.408;10.962;2022-11-21T01:31:28;38.67;;;18.63;;
45812;SDS011;31519;45.408;10.962;2022-11-21T01:33:59;31.88;;;17.85;;
45812;SDS011;31519;45.408;10.962;2022-11-21T01:36:29;34.47;;;18.15;;
45812;SDS011;31519;45.408;10.962;2022-11-21T01:39:00;29.42;;;16.35;;
45812;SDS011;31519;45.408;10.962;2022-11-21T01:41:31;33.60;;;16.83;;
45812;SDS011;31519;45.408;10.962;2022-11-21T01:44:09;33.67;;;17.17;;
45812;SDS011;31519;45.408;10.962;2022-11-21T01:46:48;29.00;;;15.90;;
45812;SDS011;31519;45.408;10.962;2022-11-21T01:49:28;34.13;;;16.33;;
45812;SDS011;31519;45.408;10.962;2022-11-21T01:52:04;24.70;;;14.15;;
45812;SDS011;31519;45.408;10.962;2022-11-21T01:57:28;29.85;;;15.55;;
45812;SDS011;31519;45.408;10.962;2022-11-21T02:00:09;34.88;;;15.80;;
45812;SDS011;31519;45.408;10.962;2022-11-21T02:02:39;35.90;;;16.30;;
45812;SDS011;31519;45.408;10.962;2022-11-21T02:05:18;29.60;;;16.10;;
45812;SDS011;31519;45.408;10.962;2022-11-21T02:07:51;34.80;;;15.67;;
45812;SDS011;31519;45.408;10.962;2022-11-21T02:10:25;30.35;;;16.83;;
45812;SDS011;31519;45.408;10.962;2022-11-21T02:12:54;31.40;;;16.08;;
45812;SDS011;31519;45.408;10.962;2022-11-21T02:15:26;30.15;;;15.18;;
45812;SDS011;31519;45.408;10.962;2022-11-21T02:17:55;32.03;;;15.55;;
45812;SDS011;31519;45.408;10.962;2022-11-21T02:20:25;30.92;;;15.75;;
45812;SDS011;31519;45.408;10.962;2022-11-21T02:23:04;31.77;;;15.75;;
45812;SDS011;31519;45.408;10.962;2022-11-21T02:25:40;32.50;;;15.88;;
45812;SDS011;31519;45.408;10.962;2022-11-21T02:28:14;27.98;;;15.32;;
45812;SDS011;31519;45.408;10.962;2022-11-21T02:30:44;33.03;;;17.13;;
45812;SDS011;31519;45.408;10.962;2022-11-21T02:33:14;27.63;;;15.77;;
45812;SDS011;31519;45.408;10.962;2022-11-21T02:35:43;31.75;;;16.00;;
45812;SDS011;31519;45.408;10.962;2022-11-21T02:38:25;27.33;;;14.98;;
45812;SDS011;31519;45.408;10.962;2022-11-21T02:41:02;30.25;;;15.77;;
45812;SDS011;31519;45.408;10.962;2022-11-21T02:43:38;31.38;;;14.68;;
45812;SDS011;31519;45.408;10.962;2022-11-21T02:46:13;27.63;;;14.60;;
45812;SDS011;31519;45.408;10.962;2022-11-21T02:48:41;31.95;;;15.43;;
45812;SDS011;31519;45.408;10.962;2022-11-21T02:51:10;25.63;;;14.02;;
45812;SDS011;31519;45.408;10.962;2022-11-21T02:53:38;30.33;;;15.07;;
45812;SDS011;31519;45.408;10.962;2022-11-21T02:56:06;25.73;;;15.40;;
45812;SDS011;31519;45.408;10.962;2022-11-21T02:58:35;30.23;;;13.48;;
45812;SDS011;31519;45.408;10.962;2022-11-21T03:01:03;28.08;;;13.70;;
45812;SDS011;31519;45.408;10.962;2022-11-21T03:03:32;24.77;;;14.93;;
45812;SDS011;31519;45.408;10.962;2022-11-21T03:06:00;35.33;;;12.85;;
45812;SDS011;31519;45.408;10.962;2022-11-21T03:08:28;28.55;;;14.68;;
45812;SDS011;31519;45.408;10.962;2022-11-21T03:10:57;34.65;;;12.57;;
45812;SDS011;31519;45.408;10.962;2022-11-21T03:13:25;19.75;;;11.82;;
45812;SDS011;31519;45.408;10.962;2022-11-21T03:15:54;23.52;;;12.43;;
45812;SDS011;31519;45.408;10.962;2022-11-21T03:18:22;26.00;;;13.10;;
45812;SDS011;31519;45.408;10.962;2022-11-21T03:20:50;23.73;;;12.50;;
45812;SDS011;31519;45.408;10.962;2022-11-21T03:23:19;28.90;;;13.77;;
45812;SDS011;31519;45.408;10.962;2022-11-21T03:25:49;32.47;;;12.90;;
45812;SDS011;31519;45.408;10.962;2022-11-21T03:28:17;26.10;;;13.65;;
45812;SDS011;31519;45.408;10.962;2022-11-21T03:30:46;23.33;;;12.93;;
45812;SDS011;31519;45.408;10.962;2022-11-21T03:33:14;25.23;;;13.27;;
45812;SDS011;31519;45.408;10.962;2022-11-21T03:35:42;28.08;;;12.20;;
45812;SDS011;31519;45.408;10.962;2022-11-21T03:38:10;21.83;;;11.90;;
45812;SDS011;31519;45.408;10.962;2022-11-21T03:40:38;24.23;;;12.57;;
45812;SDS011;31519;45.408;10.962;2022-11-21T03:43:06;23.52;;;12.43;;
45812;SDS011;31519;45.408;10.962;2022-11-21T03:45:36;23.67;;;11.63;;
45812;SDS011;31519;45.408;10.962;2022-11-21T03:48:04;28.73;;;12.18;;
45812;SDS011;31519;45.408;10.962;2022-11-21T03:50:33;29.50;;;13.13;;
45812;SDS011;31519;45.408;10.962;2022-11-21T03:53:01;25.85;;;13.68;;
45812;SDS011;31519;45.408;10.962;2022-11-21T03:55:29;25.42;;;11.65;;
45812;SDS011;31519;45.408;10.962;2022-11-21T03:57:57;23.50;;;13.45;;
45812;SDS011;31519;45.408;10.962;2022-11-21T04:00:25;25.27;;;13.45;;
45812;SDS011;31519;45.408;10.962;2022-11-21T04:02:53;22.95;;;13.13;;
45812;SDS011;31519;45.408;10.962;2022-11-21T04:05:23;25.58;;;12.52;;
45812;SDS011;31519;45.408;10.962;2022-11-21T04:07:51;27.35;;;14.32;;
45812;SDS011;31519;45.408;10.962;2022-11-21T04:10:21;25.90;;;13.32;;
45812;SDS011;31519;45.408;10.962;2022-11-21T04:12:48;29.33;;;14.73;;
45812;SDS011;31519;45.408;10.962;2022-11-21T04:15:18;26.25;;;13.55;;
45812;SDS011;31519;45.408;10.962;2022-11-21T04:17:46;29.05;;;13.10;;
45812;SDS011;31519;45.408;10.962;2022-11-21T04:20:15;23.00;;;13.30;;
45812;SDS011;31519;45.408;10.962;2022-11-21T04:22:43;27.35;;;14.15;;
45812;SDS011;31519;45.408;10.962;2022-11-21T04:25:11;23.63;;;13.27;;
45812;SDS011;31519;45.408;10.962;2022-11-21T04:27:40;29.25;;;14.00;;
45812;SDS011;31519;45.408;10.962;2022-11-21T04:30:08;26.40;;;12.60;;
45812;SDS011;31519;45.408;10.962;2022-11-21T04:32:37;24.40;;;12.55;;
45812;SDS011;31519;45.408;10.962;2022-11-21T04:35:06;23.25;;;11.38;;
45812;SDS011;31519;45.408;10.962;2022-11-21T04:37:37;22.45;;;12.02;;
45812;SDS011;31519;45.408;10.962;2022-11-21T04:40:06;22.15;;;11.40;;
45812;SDS011;31519;45.408;10.962;2022-11-21T04:42:35;24.90;;;11.07;;
45812;SDS011;31519;45.408;10.962;2022-11-21T04:45:03;23.65;;;12.48;;
45812;SDS011;31519;45.408;10.962;2022-11-21T04:47:35;55.88;;;13.40;;
45812;SDS011;31519;45.408;10.962;2022-11-21T04:50:08;27.95;;;11.73;;
45812;SDS011;31519;45.408;10.962;2022-11-21T04:52:38;24.48;;;12.55;;
45812;SDS011;31519;45.408;10.962;2022-11-21T04:55:07;27.73;;;12.45;;
45812;SDS011;31519;45.408;10.962;2022-11-21T04:57:35;25.30;;;13.48;;
45812;SDS011;31519;45.408;10.962;2022-11-21T05:00:04;27.25;;;13.45;;
45812;SDS011;31519;45.408;10.962;2022-11-21T05:02:32;21.52;;;11.13;;
45812;SDS011;31519;45.408;10.962;2022-11-21T05:05:01;23.52;;;10.93;;
45812;SDS011;31519;45.408;10.962;2022-11-21T05:07:29;20.38;;;10.50;;
45812;SDS011;31519;45.408;10.962;2022-11-21T05:09:57;24.98;;;10.60;;
45812;SDS011;31519;45.408;10.962;2022-11-21T05:12:25;19.55;;;9.88;;
45812;SDS011;31519;45.408;10.962;2022-11-21T05:15:12;21.98;;;10.27;;
45812;SDS011;31519;45.408;10.962;2022-11-21T05:17:40;21.67;;;9.73;;
45812;SDS011;31519;45.408;10.962;2022-11-21T05:20:08;15.43;;;9.85;;
45812;SDS011;31519;45.408;10.962;2022-11-21T05:22:37;20.80;;;10.27;;
45812;SDS011;31519;45.408;10.962;2022-11-21T05:25:06;19.38;;;9.73;;
45812;SDS011;31519;45.408;10.962;2022-11-21T05:27:34;30.55;;;10.57;;
45812;SDS011;31519;45.408;10.962;2022-11-21T05:30:03;24.75;;;11.38;;
45812;SDS011;31519;45.408;10.962;2022-11-21T05:32:32;19.05;;;9.43;;
45812;SDS011;31519;45.408;10.962;2022-11-21T05:35:00;17.58;;;9.73;;
45812;SDS011;31519;45.408;10.962;2022-11-21T05:37:29;18.55;;;9.00;;
45812;SDS011;31519;45.408;10.962;2022-11-21T05:39:58;17.67;;;10.15;;
45812;SDS011;31519;45.408;10.962;2022-11-21T05:42:26;20.98;;;9.73;;
45812;SDS011;31519;45.408;10.962;2022-11-21T05:45:14;18.58;;;9.70;;
45812;SDS011;31519;45.408;10.962;2022-11-21T05:47:42;17.08;;;10.13;;
45812;SDS011;31519;45.408;10.962;2022-11-21T05:50:11;22.92;;;10.50;;
45812;SDS011;31519;45.408;10.962;2022-11-21T05:52:39;19.30;;;10.07;;
45812;SDS011;31519;45.408;10.962;2022-11-21T05:55:08;22.02;;;11.43;;
45812;SDS011;31519;45.408;10.962;2022-11-21T05:57:36;21.00;;;8.38;;
45812;SDS011;31519;45.408;10.962;2022-11-21T06:00:04;20.73;;;9.30;;
45812;SDS011;31519;45.408;10.962;2022-11-21T06:02:33;20.27;;;9.85;;
45812;SDS011;31519;45.408;10.962;2022-11-21T06:05:20;15.27;;;8.90;;
45812;SDS011;31519;45.408;10.962;2022-11-21T06:07:48;15.70;;;9.15;;
45812;SDS011;31519;45.408;10.962;2022-11-21T06:10:16;17.83;;;9.32;;
45812;SDS011;31519;45.408;10.962;2022-11-21T06:12:44;17.75;;;8.90;;
45812;SDS011;31519;45.408;10.962;2022-11-21T06:15:12;16.63;;;8.70;;
45812;SDS011;31519;45.408;10.962;2022-11-21T06:17:40;27.80;;;9.82;;
45812;SDS011;31519;45.408;10.962;2022-11-21T06:20:10;16.48;;;9.10;;
45812;SDS011;31519;45.408;10.962;2022-11-21T06:22:38;17.45;;;8.95;;
45812;SDS011;31519;45.408;10.962;2022-11-21T06:25:06;18.95;;;9.45;;
45812;SDS011;31519;45.408;10.962;2022-11-21T06:27:35;22.77;;;9.35;;
45812;SDS011;31519;45.408;10.962;2022-11-21T06:30:04;22.00;;;8.68;;
45812;SDS011;31519;45.408;10.962;2022-11-21T06:32:36;24.52;;;8.93;;
45812;SDS011;31519;45.408;10.962;2022-11-21T06:35:05;14.93;;;9.15;;
45812;SDS011;31519;45.408;10.962;2022-11-21T06:37:34;18.13;;;9.27;;
45812;SDS011;31519;45.408;10.962;2022-11-21T06:40:02;17.88;;;9.27;;
45812;SDS011;31519;45.408;10.962;2022-11-21T06:42:31;23.95;;;9.55;;
45812;SDS011;31519;45.408;10.962;2022-11-21T06:45:00;17.33;;;9.20;;
45812;SDS011;31519;45.408;10.962;2022-11-21T06:47:32;20.10;;;9.40;;
45812;SDS011;31519;45.408;10.962;2022-11-21T06:50:01;19.00;;;9.17;;
45812;SDS011;31519;45.408;10.962;2022-11-21T06:52:33;16.15;;;9.18;;
45812;SDS011;31519;45.408;10.962;2022-11-21T06:55:02;17.95;;;8.43;;
45812;SDS011;31519;45.408;10.962;2022-11-21T06:57:30;23.52;;;9.25;;
45812;SDS011;31519;45.408;10.962;2022-11-21T06:59:59;15.77;;;8.70;;
45812;SDS011;31519;45.408;10.962;2022-11-21T07:02:28;16.92;;;8.63;;
45812;SDS011;31519;45.408;10.962;2022-11-21T07:04:56;16.48;;;9.00;;
45812;SDS011;31519;45.408;10.962;2022-11-21T07:07:25;15.98;;;8.25;;
45812;SDS011;31519;45.408;10.962;2022-11-21T07:09:53;14.52;;;8.75;;
45812;SDS011;31519;45.408;10.962;2022-11-21T07:12:21;34.05;;;9.02;;
45812;SDS011;31519;45.408;10.962;2022-11-21T07:15:09;21.88;;;8.82;;
45812;SDS011;31519;45.408;10.962;2022-11-21T07:17:37;22.35;;;9.13;;
45812;SDS011;31519;45.408;10.962;2022-11-21T07:20:06;22.13;;;8.30;;
45812;SDS011;31519;45.408;10.962;2022-11-21T07:22:34;17.25;;;7.97;;
45812;SDS011;31519;45.408;10.962;2022-11-21T07:25:03;13.52;;;8.10;;
45812;SDS011;31519;45.408;10.962;2022-11-21T07:27:31;15.30;;;8.52;;
45812;SDS011;31519;45.408;10.962;2022-11-21T07:29:59;25.75;;;8.82;;
45812;SDS011;31519;45.408;10.962;2022-11-21T07:32:27;20.98;;;8.50;;
45812;SDS011;31519;45.408;10.962;2022-11-21T07:34:56;23.02;;;9.32;;
45812;SDS011;31519;45.408;10.962;2022-11-21T07:37:24;22.50;;;9.85;;
45812;SDS011;31519;45.408;10.962;2022-11-21T07:39:52;21.23;;;10.52;;
45812;SDS011;31519;45.408;10.962;2022-11-21T07:42:20;25.27;;;10.98;;
45812;SDS011;31519;45.408;10.962;2022-11-21T07:44:50;37.65;;;12.02;;
45812;SDS011;31519;45.408;10.962;2022-11-21T07:47:18;37.65;;;12.18;;
45812;SDS011;31519;45.408;10.962;2022-11-21T07:49:48;37.25;;;13.43;;
45812;SDS011;31519;45.408;10.962;2022-11-21T07:52:16;29.08;;;13.45;;
45812;SDS011;31519;45.408;10.962;2022-11-21T07:54:44;39.95;;;13.43;;
45812;SDS011;31519;45.408;10.962;2022-11-21T07:57:12;44.38;;;15.05;;
45812;SDS011;31519;45.408;10.962;2022-11-21T07:59:40;48.03;;;15.93;;
45812;SDS011;31519;45.408;10.962;2022-11-21T08:02:22;37.97;;;16.77;;
45812;SDS011;31519;45.408;10.962;2022-11-21T08:04:52;36.38;;;16.20;;
45812;SDS011;31519;45.408;10.962;2022-11-21T08:07:22;44.70;;;15.90;;
45812;SDS011;31519;45.408;10.962;2022-11-21T08:09:51;46.75;;;16.80;;
45812;SDS011;31519;45.408;10.962;2022-11-21T08:12:19;50.53;;;19.17;;
45812;SDS011;31519;45.408;10.962;2022-11-21T08:14:47;47.78;;;17.38;;
45812;SDS011;31519;45.408;10.962;2022-11-21T08:17:15;44.15;;;18.05;;
45812;SDS011;31519;45.408;10.962;2022-11-21T08:19:45;63.53;;;17.77;;
45812;SDS011;31519;45.408;10.962;2022-11-21T08:22:13;53.47;;;18.55;;
45812;SDS011;31519;45.408;10.962;2022-11-21T08:24:41;79.57;;;20.13;;
45812;SDS011;31519;45.408;10.962;2022-11-21T08:27:09;47.25;;;19.23;;
45812;SDS011;31519;45.408;10.962;2022-11-21T08:29:38;46.08;;;21.88;;
45812;SDS011;31519;45.408;10.962;2022-11-21T08:32:06;45.63;;;20.35;;
45812;SDS011;31519;45.408;10.962;2022-11-21T08:34:35;59.92;;;21.60;;
45812;SDS011;31519;45.408;10.962;2022-11-21T08:37:03;53.58;;;20.23;;
45812;SDS011;31519;45.408;10.962;2022-11-21T08:39:31;51.30;;;20.27;;
45812;SDS011;31519;45.408;10.962;2022-11-21T08:41:59;43.50;;;19.17;;
45812;SDS011;31519;45.408;10.962;2022-11-21T08:44:31;54.60;;;23.73;;
45812;SDS011;31519;45.408;10.962;2022-11-21T08:47:01;56.75;;;23.85;;
45812;SDS011;31519;45.408;10.962;2022-11-21T08:49:30;46.63;;;22.77;;
45812;SDS011;31519;45.408;10.962;2022-11-21T08:51:58;41.03;;;21.50;;
45812;SDS011;31519;45.408;10.962;2022-11-21T08:54:28;50.72;;;23.20;;
45812;SDS011;31519;45.408;10.962;2022-11-21T08:56:56;51.25;;;21.67;;
45812;SDS011;31519;45.408;10.962;2022-11-21T08:59:25;44.40;;;22.00;;
45812;SDS011;31519;45.408;10.962;2022-11-21T09:01:53;49.88;;;22.33;;
45812;SDS011;31519;45.408;10.962;2022-11-21T09:04:22;47.15;;;22.98;;
45812;SDS011;31519;45.408;10.962;2022-11-21T09:06:50;42.35;;;22.48;;
45812;SDS011;31519;45.408;10.962;2022-11-21T09:09:18;45.50;;;22.77;;
45812;SDS011;31519;45.408;10.962;2022-11-21T09:11:52;44.38;;;23.08;;
45812;SDS011;31519;45.408;10.962;2022-11-21T09:14:21;43.22;;;21.85;;
45812;SDS011;31519;45.408;10.962;2022-11-21T09:17:12;44.17;;;21.40;;
45812;SDS011;31519;45.408;10.962;2022-11-21T09:19:59;43.40;;;24.38;;
45812;SDS011;31519;45.408;10.962;2022-11-21T09:22:27;50.80;;;25.65;;
45812;SDS011;31519;45.408;10.962;2022-11-21T09:24:56;49.30;;;25.25;;
45812;SDS011;31519;45.408;10.962;2022-11-21T09:27:24;47.92;;;24.38;;
45812;SDS011;31519;45.408;10.962;2022-11-21T09:29:52;46.88;;;24.23;;
45812;SDS011;31519;45.408;10.962;2022-11-21T09:32:20;42.58;;;23.63;;
45812;SDS011;31519;45.408;10.962;2022-11-21T09:34:51;60.17;;;29.15;;
45812;SDS011;31519;45.408;10.962;2022-11-21T09:37:18;52.85;;;26.90;;
45812;SDS011;31519;45.408;10.962;2022-11-21T09:39:47;63.28;;;27.20;;
45812;SDS011;31519;45.408;10.962;2022-11-21T09:45:14;51.53;;;24.08;;
45812;SDS011;31519;45.408;10.962;2022-11-21T09:47:51;49.85;;;26.20;;
45812;SDS011;31519;45.408;10.962;2022-11-21T09:50:24;50.15;;;25.33;;
45812;SDS011;31519;45.408;10.962;2022-11-21T09:53:05;63.90;;;27.02;;
45812;SDS011;31519;45.408;10.962;2022-11-21T09:58:08;51.65;;;27.38;;
45812;SDS011;31519;45.408;10.962;2022-11-21T10:00:53;51.58;;;26.42;;
45812;SDS011;31519;45.408;10.962;2022-11-21T10:03:23;57.22;;;27.63;;
45812;SDS011;31519;45.408;10.962;2022-11-21T10:06:00;49.67;;;26.20;;
45812;SDS011;31519;45.408;10.962;2022-11-21T10:08:36;53.25;;;26.88;;
45812;SDS011;31519;45.408;10.962;2022-11-21T10:28:54;60.38;;;29.58;;
45812;SDS011;31519;45.408;10.962;2022-11-21T10:31:32;54.40;;;28.77;;
45812;SDS011;31519;45.408;10.962;2022-11-21T10:56:22;69.30;;;34.20;;
45812;SDS011;31519;45.408;10.962;2022-11-21T12:22:49;65.68;;;34.55;;
45812;SDS011;31519;45.408;10.962;2022-11-21T12:27:30;62.53;;;32.65;;
45812;SDS011;31519;45.408;10.962;2022-11-21T12:54:03;55.33;;;33.03;;
45812;SDS011;31519;45.408;10.962;2022-11-21T13:25:50;60.20;;;33.15;;
45812;SDS011;31519;45.408;10.962;2022-11-21T13:34:39;65.65;;;32.72;;
45812;SDS011;31519;45.408;10.962;2022-11-21T15:35:25;69.85;;;38.60;;
45812;SDS011;31519;45.408;10.962;2022-11-21T15:39:47;77.85;;;40.25;;
45812;SDS011;31519;45.408;10.962;2022-11-21T15:48:35;77.95;;;39.60;;
45812;SDS011;31519;45.408;10.962;2022-11-21T15:52:48;77.10;;;39.70;;
45812;SDS011;31519;45.408;10.962;2022-11-21T16:01:39;68.82;;;39.03;;
45812;SDS011;31519;45.408;10.962;2022-11-21T16:05:16;71.53;;;41.25;;
45812;SDS011;31519;45.408;10.962;2022-11-21T16:37:10;85.55;;;39.67;;
45812;SDS011;31519;45.408;10.962;2022-11-21T16:40:51;88.32;;;43.47;;
45812;SDS011;31519;45.408;10.962;2022-11-21T16:45:31;83.72;;;42.58;;
45812;SDS011;31519;45.408;10.962;2022-11-21T19:48:27;28.83;;;17.45;;
45812;SDS011;31519;45.408;10.962;2022-11-21T19:52:40;33.13;;;16.65;;
45812;SDS011;31519;45.408;10.962;2022-11-21T20:18:38;29.83;;;16.77;;
45812;SDS011;31519;45.408;10.962;2022-11-21T20:26:55;37.22;;;17.65;;
45812;SDS011;31519;45.408;10.962;2022-11-21T21:00:55;33.15;;;18.63;;
45812;SDS011;31519;45.408;10.962;2022-11-21T21:04:06;32.72;;;16.75;;
45812;SDS011;31519;45.408;10.962;2022-11-21T21:16:26;31.77;;;17.20;;
45812;SDS011;31519;45.408;10.962;2022-11-21T22:49:10;59.03;;;30.33;;
45812;SDS011;31519;45.408;10.962;2022-11-21T23:14:09;55.20;;;31.63;;
45812;SDS011;31519;45.408;10.962;2022-11-21T23:18:22;55.67;;;30.85;;
